KGYR/GYR METAR and TAF weather

Enter ICAO airport designator
Station Type Date Time Source
KGYR METAR 2020/01/29 02:47 UTC NOAA

KGYR 290247Z 00000KT 10SM SKC 15/M02 A3003


Station Type Date Time Source
KGYR Decoded METAR 2020/01/29 02:47 UTC NOAA

Goodyear Municipal, AZ, United States (KGYR) 33-25N 112-23W
Jan 28, 2020 - 09:47 PM EST / 2020.01.29 0247 UTC
Wind: Calm:0
Visibility: 10 mile(s):0
Sky conditions: clear
Temperature: 59 F (15 C)
Dew Point: 28 F (-2 C)
Relative Humidity: 30%
Pressure (altimeter): 30.03 in. Hg (1016 hPa)
ob: KGYR 290247Z 00000KT 10SM SKC 15/M02 A3003
cycle: 3

Station Type Date Time Source
KGYR TAF UTC NOAA

Error!

Example: see airport list